sensor_id;sensor_type;location;lat;lon;timestamp;P1;durP1;ratioP1;P2;durP2;ratioP2
85725;SDS011;76169;47.278;10.984;2024-03-02T10:01:59;2.90;;;2.70;;
85725;SDS011;76169;47.278;10.984;2024-03-02T10:04:26;2.63;;;2.42;;
85725;SDS011;76169;47.278;10.984;2024-03-02T10:07:08;2.60;;;2.40;;
85725;SDS011;76169;47.278;10.984;2024-03-02T10:09:36;2.75;;;2.35;;
85725;SDS011;76169;47.278;10.984;2024-03-02T10:12:05;2.67;;;2.45;;
85725;SDS011;76169;47.278;10.984;2024-03-02T10:14:31;2.55;;;2.35;;
85725;SDS011;76169;47.278;10.984;2024-03-02T10:17:10;2.67;;;2.38;;
85725;SDS011;76169;47.278;10.984;2024-03-02T10:19:37;2.65;;;2.35;;
85725;SDS011;76169;47.278;10.984;2024-03-02T10:22:04;2.50;;;2.30;;
85725;SDS011;76169;47.278;10.984;2024-03-02T10:24:43;2.67;;;2.47;;
85725;SDS011;76169;47.278;10.984;2024-03-02T10:27:11;2.28;;;2.08;;
85725;SDS011;76169;47.278;10.984;2024-03-02T10:29:40;2.00;;;1.80;;
85725;SDS011;76169;47.278;10.984;2024-03-02T10:32:10;2.38;;;2.17;;
85725;SDS011;76169;47.278;10.984;2024-03-02T10:34:36;2.45;;;2.25;;
85725;SDS011;76169;47.278;10.984;2024-03-02T10:37:03;2.78;;;2.55;;
85725;SDS011;76169;47.278;10.984;2024-03-02T10:39:29;2.38;;;2.15;;
85725;SDS011;76169;47.278;10.984;2024-03-02T10:41:56;3.03;;;2.30;;
85725;SDS011;76169;47.278;10.984;2024-03-02T10:44:23;2.58;;;2.20;;
85725;SDS011;76169;47.278;10.984;2024-03-02T10:46:49;2.15;;;1.95;;
85725;SDS011;76169;47.278;10.984;2024-03-02T10:49:16;3.13;;;2.20;;
85725;SDS011;76169;47.278;10.984;2024-03-02T10:51:42;2.50;;;2.20;;
85725;SDS011;76169;47.278;10.984;2024-03-02T10:54:08;2.03;;;1.90;;
85725;SDS011;76169;47.278;10.984;2024-03-02T10:56:41;2.30;;;2.10;;
85725;SDS011;76169;47.278;10.984;2024-03-02T11:01:41;2.28;;;2.08;;
85725;SDS011;76169;47.278;10.984;2024-03-02T11:04:09;2.50;;;2.30;;
85725;SDS011;76169;47.278;10.984;2024-03-02T11:06:35;2.70;;;2.20;;
85725;SDS011;76169;47.278;10.984;2024-03-02T11:09:07;2.30;;;2.10;;
85725;SDS011;76169;47.278;10.984;2024-03-02T11:11:40;2.20;;;2.00;;
85725;SDS011;76169;47.278;10.984;2024-03-02T11:14:07;2.08;;;1.88;;
85725;SDS011;76169;47.278;10.984;2024-03-02T11:16:36;2.35;;;2.05;;
85725;SDS011;76169;47.278;10.984;2024-03-02T11:19:04;2.50;;;1.90;;
85725;SDS011;76169;47.278;10.984;2024-03-02T11:21:32;2.58;;;2.20;;
85725;SDS011;76169;47.278;10.984;2024-03-02T11:23:58;1.88;;;1.75;;
85725;SDS011;76169;47.278;10.984;2024-03-02T11:26:24;2.13;;;1.90;;
85725;SDS011;76169;47.278;10.984;2024-03-02T11:28:50;3.13;;;2.10;;
85725;SDS011;76169;47.278;10.984;2024-03-02T11:31:16;2.40;;;2.20;;
85725;SDS011;76169;47.278;10.984;2024-03-02T11:33:42;2.30;;;2.05;;
85725;SDS011;76169;47.278;10.984;2024-03-02T11:36:09;2.22;;;2.03;;
85725;SDS011;76169;47.278;10.984;2024-03-02T11:38:35;2.50;;;2.28;;
85725;SDS011;76169;47.278;10.984;2024-03-02T11:41:02;2.60;;;1.80;;
85725;SDS011;76169;47.278;10.984;2024-03-02T11:43:29;2.20;;;2.00;;
85725;SDS011;76169;47.278;10.984;2024-03-02T11:46:03;2.38;;;1.75;;
85725;SDS011;76169;47.278;10.984;2024-03-02T11:48:32;2.05;;;1.90;;
85725;SDS011;76169;47.278;10.984;2024-03-02T11:50:59;1.98;;;1.80;;
85725;SDS011;76169;47.278;10.984;2024-03-02T11:53:26;1.85;;;1.70;;
85725;SDS011;76169;47.278;10.984;2024-03-02T11:58:26;2.10;;;1.90;;
85725;SDS011;76169;47.278;10.984;2024-03-02T12:00:53;2.05;;;1.85;;
85725;SDS011;76169;47.278;10.984;2024-03-02T12:03:21;1.90;;;1.80;;
85725;SDS011;76169;47.278;10.984;2024-03-02T12:05:51;2.15;;;1.95;;
85725;SDS011;76169;47.278;10.984;2024-03-02T12:08:17;2.03;;;1.70;;
85725;SDS011;76169;47.278;10.984;2024-03-02T12:10:43;1.70;;;1.60;;
85725;SDS011;76169;47.278;10.984;2024-03-02T12:13:21;1.67;;;1.58;;
85725;SDS011;76169;47.278;10.984;2024-03-02T12:15:47;1.63;;;1.50;;
85725;SDS011;76169;47.278;10.984;2024-03-02T12:18:13;2.13;;;1.77;;
85725;SDS011;76169;47.278;10.984;2024-03-02T12:20:39;1.67;;;1.58;;
85725;SDS011;76169;47.278;10.984;2024-03-02T12:23:05;1.92;;;1.67;;
85725;SDS011;76169;47.278;10.984;2024-03-02T12:25:32;1.98;;;1.60;;
85725;SDS011;76169;47.278;10.984;2024-03-02T12:27:59;1.63;;;1.52;;
85725;SDS011;76169;47.278;10.984;2024-03-02T12:30:27;1.73;;;1.63;;
85725;SDS011;76169;47.278;10.984;2024-03-02T12:32:53;1.77;;;1.67;;
85725;SDS011;76169;47.278;10.984;2024-03-02T12:35:19;3.28;;;1.70;;
85725;SDS011;76169;47.278;10.984;2024-03-02T12:37:49;1.80;;;1.70;;
85725;SDS011;76169;47.278;10.984;2024-03-02T12:40:16;2.17;;;1.70;;
85725;SDS011;76169;47.278;10.984;2024-03-02T12:42:43;1.58;;;1.48;;
85725;SDS011;76169;47.278;10.984;2024-03-02T12:45:09;1.85;;;1.63;;
85725;SDS011;76169;47.278;10.984;2024-03-02T12:47:36;1.83;;;1.50;;
85725;SDS011;76169;47.278;10.984;2024-03-02T12:50:03;1.50;;;1.40;;
85725;SDS011;76169;47.278;10.984;2024-03-02T12:52:29;1.88;;;1.73;;
85725;SDS011;76169;47.278;10.984;2024-03-02T12:54:58;3.88;;;1.58;;
85725;SDS011;76169;47.278;10.984;2024-03-02T12:57:25;2.08;;;1.60;;
85725;SDS011;76169;47.278;10.984;2024-03-02T12:59:52;1.60;;;1.50;;
85725;SDS011;76169;47.278;10.984;2024-03-02T13:02:19;1.67;;;1.58;;
85725;SDS011;76169;47.278;10.984;2024-03-02T13:04:51;1.65;;;1.50;;
85725;SDS011;76169;47.278;10.984;2024-03-02T13:09:45;1.42;;;1.33;;
85725;SDS011;76169;47.278;10.984;2024-03-02T13:12:11;1.80;;;1.60;;
85725;SDS011;76169;47.278;10.984;2024-03-02T13:14:37;1.83;;;1.70;;
85725;SDS011;76169;47.278;10.984;2024-03-02T13:17:03;1.85;;;1.60;;
85725;SDS011;76169;47.278;10.984;2024-03-02T13:19:30;1.50;;;1.40;;
85725;SDS011;76169;47.278;10.984;2024-03-02T13:21:57;1.90;;;1.63;;
85725;SDS011;76169;47.278;10.984;2024-03-02T13:24:23;2.42;;;1.30;;
85725;SDS011;76169;47.278;10.984;2024-03-02T13:26:56;1.57;;;1.47;;
85725;SDS011;76169;47.278;10.984;2024-03-02T13:29:23;1.58;;;1.48;;
85725;SDS011;76169;47.278;10.984;2024-03-02T13:31:49;1.80;;;1.70;;
85725;SDS011;76169;47.278;10.984;2024-03-02T13:34:16;2.25;;;1.70;;
85725;SDS011;76169;47.278;10.984;2024-03-02T13:36:42;1.52;;;1.42;;
85725;SDS011;76169;47.278;10.984;2024-03-02T13:39:08;1.98;;;1.70;;
85725;SDS011;76169;47.278;10.984;2024-03-02T13:41:35;1.92;;;1.60;;
85725;SDS011;76169;47.278;10.984;2024-03-02T13:44:02;1.58;;;1.48;;
85725;SDS011;76169;47.278;10.984;2024-03-02T13:46:28;1.60;;;1.50;;
85725;SDS011;76169;47.278;10.984;2024-03-02T13:48:54;1.45;;;1.35;;
85725;SDS011;76169;47.278;10.984;2024-03-02T13:51:20;1.50;;;1.40;;
85725;SDS011;76169;47.278;10.984;2024-03-02T13:53:46;1.83;;;1.60;;
85725;SDS011;76169;47.278;10.984;2024-03-02T13:56:12;1.17;;;1.17;;
85725;SDS011;76169;47.278;10.984;2024-03-02T13:58:38;2.08;;;1.60;;
85725;SDS011;76169;47.278;10.984;2024-03-02T14:01:04;1.25;;;1.15;;
85725;SDS011;76169;47.278;10.984;2024-03-02T14:03:31;1.65;;;1.30;;
85725;SDS011;76169;47.278;10.984;2024-03-02T14:05:57;1.40;;;1.30;;
85725;SDS011;76169;47.278;10.984;2024-03-02T14:08:23;1.40;;;1.30;;
85725;SDS011;76169;47.278;10.984;2024-03-02T14:10:49;1.55;;;1.27;;
85725;SDS011;76169;47.278;10.984;2024-03-02T14:13:15;1.40;;;1.20;;
85725;SDS011;76169;47.278;10.984;2024-03-02T14:15:41;1.40;;;1.30;;
85725;SDS011;76169;47.278;10.984;2024-03-02T14:18:08;1.80;;;1.30;;
85725;SDS011;76169;47.278;10.984;2024-03-02T14:20:37;1.52;;;1.42;;
85725;SDS011;76169;47.278;10.984;2024-03-02T14:23:03;1.83;;;1.38;;
85725;SDS011;76169;47.278;10.984;2024-03-02T14:25:32;1.20;;;1.10;;
85725;SDS011;76169;47.278;10.984;2024-03-02T14:27:59;1.60;;;1.40;;
85725;SDS011;76169;47.278;10.984;2024-03-02T14:30:25;2.22;;;1.15;;
85725;SDS011;76169;47.278;10.984;2024-03-02T14:32:51;1.50;;;1.40;;
85725;SDS011;76169;47.278;10.984;2024-03-02T14:35:17;1.15;;;1.05;;
85725;SDS011;76169;47.278;10.984;2024-03-02T14:37:43;1.65;;;1.55;;
85725;SDS011;76169;47.278;10.984;2024-03-02T14:40:09;1.40;;;1.30;;
85725;SDS011;76169;47.278;10.984;2024-03-02T14:42:36;1.30;;;1.20;;
85725;SDS011;76169;47.278;10.984;2024-03-02T14:45:03;1.42;;;1.20;;
85725;SDS011;76169;47.278;10.984;2024-03-02T14:47:32;1.65;;;1.38;;
85725;SDS011;76169;47.278;10.984;2024-03-02T14:49:59;1.20;;;1.10;;
85725;SDS011;76169;47.278;10.984;2024-03-02T14:52:25;1.40;;;1.30;;
85725;SDS011;76169;47.278;10.984;2024-03-02T14:54:51;1.73;;;1.45;;
85725;SDS011;76169;47.278;10.984;2024-03-02T14:57:17;1.20;;;1.10;;
85725;SDS011;76169;47.278;10.984;2024-03-02T14:59:43;1.10;;;1.10;;
85725;SDS011;76169;47.278;10.984;2024-03-02T15:02:09;1.30;;;1.20;;
85725;SDS011;76169;47.278;10.984;2024-03-02T15:04:38;1.58;;;1.17;;
85725;SDS011;76169;47.278;10.984;2024-03-02T15:07:04;1.63;;;1.30;;
85725;SDS011;76169;47.278;10.984;2024-03-02T15:09:30;1.45;;;1.35;;
85725;SDS011;76169;47.278;10.984;2024-03-02T15:11:56;1.23;;;1.13;;
85725;SDS011;76169;47.278;10.984;2024-03-02T15:14:22;1.50;;;1.40;;
85725;SDS011;76169;47.278;10.984;2024-03-02T15:16:48;1.30;;;1.20;;
85725;SDS011;76169;47.278;10.984;2024-03-02T15:19:14;1.38;;;1.27;;
85725;SDS011;76169;47.278;10.984;2024-03-02T15:21:41;0.93;;;0.93;;
85725;SDS011;76169;47.278;10.984;2024-03-02T15:24:07;1.30;;;1.20;;
85725;SDS011;76169;47.278;10.984;2024-03-02T15:26:33;1.25;;;1.10;;
85725;SDS011;76169;47.278;10.984;2024-03-02T15:29:03;1.40;;;1.30;;
85725;SDS011;76169;47.278;10.984;2024-03-02T15:31:29;1.40;;;1.30;;
85725;SDS011;76169;47.278;10.984;2024-03-02T15:33:55;1.85;;;1.27;;
85725;SDS011;76169;47.278;10.984;2024-03-02T15:36:22;1.20;;;1.10;;
85725;SDS011;76169;47.278;10.984;2024-03-02T15:38:48;1.10;;;1.00;;
85725;SDS011;76169;47.278;10.984;2024-03-02T15:41:14;1.88;;;1.25;;
85725;SDS011;76169;47.278;10.984;2024-03-02T15:43:40;1.30;;;1.20;;
85725;SDS011;76169;47.278;10.984;2024-03-02T15:46:08;1.88;;;1.10;;
85725;SDS011;76169;47.278;10.984;2024-03-02T15:48:34;1.27;;;1.10;;
85725;SDS011;76169;47.278;10.984;2024-03-02T15:51:01;1.60;;;1.17;;
85725;SDS011;76169;47.278;10.984;2024-03-02T15:53:29;1.20;;;1.10;;
85725;SDS011;76169;47.278;10.984;2024-03-02T15:55:55;1.20;;;1.00;;
85725;SDS011;76169;47.278;10.984;2024-03-02T15:58:21;1.15;;;0.90;;
85725;SDS011;76169;47.278;10.984;2024-03-02T16:00:47;1.58;;;1.15;;
85725;SDS011;76169;47.278;10.984;2024-03-02T16:03:13;1.40;;;1.23;;
85725;SDS011;76169;47.278;10.984;2024-03-02T16:05:39;1.40;;;1.30;;
85725;SDS011;76169;47.278;10.984;2024-03-02T16:08:05;1.35;;;1.10;;
85725;SDS011;76169;47.278;10.984;2024-03-02T16:10:32;1.30;;;1.20;;
85725;SDS011;76169;47.278;10.984;2024-03-02T16:12:58;1.33;;;1.20;;
85725;SDS011;76169;47.278;10.984;2024-03-02T16:15:26;1.13;;;1.02;;
85725;SDS011;76169;47.278;10.984;2024-03-02T16:17:53;1.35;;;1.25;;
85725;SDS011;76169;47.278;10.984;2024-03-02T16:20:19;1.98;;;1.23;;
85725;SDS011;76169;47.278;10.984;2024-03-02T16:22:45;2.00;;;1.10;;
85725;SDS011;76169;47.278;10.984;2024-03-02T16:25:11;1.42;;;1.13;;
85725;SDS011;76169;47.278;10.984;2024-03-02T16:27:37;1.30;;;1.13;;
85725;SDS011;76169;47.278;10.984;2024-03-02T16:30:04;1.20;;;1.05;;
85725;SDS011;76169;47.278;10.984;2024-03-02T16:32:30;2.30;;;1.25;;
85725;SDS011;76169;47.278;10.984;2024-03-02T16:34:56;1.30;;;1.00;;
85725;SDS011;76169;47.278;10.984;2024-03-02T16:37:22;1.20;;;1.10;;
85725;SDS011;76169;47.278;10.984;2024-03-02T16:39:50;1.10;;;1.00;;
85725;SDS011;76169;47.278;10.984;2024-03-02T16:42:17;1.33;;;1.08;;
85725;SDS011;76169;47.278;10.984;2024-03-02T16:44:45;1.10;;;1.00;;
85725;SDS011;76169;47.278;10.984;2024-03-02T16:47:13;1.73;;;0.95;;
85725;SDS011;76169;47.278;10.984;2024-03-02T16:49:43;1.20;;;1.10;;
85725;SDS011;76169;47.278;10.984;2024-03-02T16:52:10;1.73;;;1.25;;
85725;SDS011;76169;47.278;10.984;2024-03-02T16:54:37;1.55;;;1.00;;
85725;SDS011;76169;47.278;10.984;2024-03-02T16:57:03;1.23;;;0.90;;
85725;SDS011;76169;47.278;10.984;2024-03-02T16:59:30;1.15;;;1.05;;
85725;SDS011;76169;47.278;10.984;2024-03-02T17:01:56;0.90;;;0.90;;
85725;SDS011;76169;47.278;10.984;2024-03-02T17:04:23;0.98;;;0.93;;
85725;SDS011;76169;47.278;10.984;2024-03-02T17:06:51;0.95;;;0.95;;
85725;SDS011;76169;47.278;10.984;2024-03-02T17:09:17;1.33;;;1.13;;
85725;SDS011;76169;47.278;10.984;2024-03-02T17:11:43;1.30;;;1.13;;
85725;SDS011;76169;47.278;10.984;2024-03-02T17:14:09;1.02;;;0.93;;
85725;SDS011;76169;47.278;10.984;2024-03-02T17:16:35;1.00;;;1.00;;
85725;SDS011;76169;47.278;10.984;2024-03-02T17:19:01;1.25;;;0.85;;
85725;SDS011;76169;47.278;10.984;2024-03-02T17:21:27;1.40;;;1.17;;
85725;SDS011;76169;47.278;10.984;2024-03-02T17:23:53;1.30;;;1.05;;
85725;SDS011;76169;47.278;10.984;2024-03-02T17:26:19;1.00;;;0.90;;
85725;SDS011;76169;47.278;10.984;2024-03-02T17:28:46;0.90;;;0.90;;
85725;SDS011;76169;47.278;10.984;2024-03-02T17:31:12;0.95;;;0.88;;
85725;SDS011;76169;47.278;10.984;2024-03-02T17:33:38;0.90;;;0.90;;
85725;SDS011;76169;47.278;10.984;2024-03-02T17:36:04;1.17;;;1.00;;
85725;SDS011;76169;47.278;10.984;2024-03-02T17:38:30;1.23;;;1.13;;
85725;SDS011;76169;47.278;10.984;2024-03-02T17:40:56;2.40;;;1.00;;
85725;SDS011;76169;47.278;10.984;2024-03-02T17:43:22;1.60;;;1.23;;
85725;SDS011;76169;47.278;10.984;2024-03-02T17:45:48;1.35;;;1.00;;
85725;SDS011;76169;47.278;10.984;2024-03-02T17:48:14;2.03;;;0.90;;
85725;SDS011;76169;47.278;10.984;2024-03-02T17:50:43;0.95;;;0.95;;
85725;SDS011;76169;47.278;10.984;2024-03-02T17:53:09;1.23;;;1.00;;
85725;SDS011;76169;47.278;10.984;2024-03-02T17:55:35;1.65;;;0.88;;
85725;SDS011;76169;47.278;10.984;2024-03-02T17:58:02;1.10;;;1.00;;
85725;SDS011;76169;47.278;10.984;2024-03-02T18:00:28;1.08;;;0.98;;
85725;SDS011;76169;47.278;10.984;2024-03-02T18:02:54;1.30;;;1.00;;
85725;SDS011;76169;47.278;10.984;2024-03-02T18:05:20;0.90;;;0.90;;
85725;SDS011;76169;47.278;10.984;2024-03-02T18:07:46;2.25;;;1.02;;
85725;SDS011;76169;47.278;10.984;2024-03-02T18:10:12;1.02;;;0.82;;
85725;SDS011;76169;47.278;10.984;2024-03-02T18:12:38;1.42;;;0.95;;
85725;SDS011;76169;47.278;10.984;2024-03-02T18:15:08;2.50;;;1.10;;
85725;SDS011;76169;47.278;10.984;2024-03-02T18:17:35;1.33;;;0.93;;
85725;SDS011;76169;47.278;10.984;2024-03-02T18:20:01;0.90;;;0.90;;
85725;SDS011;76169;47.278;10.984;2024-03-02T18:22:30;1.10;;;1.00;;
85725;SDS011;76169;47.278;10.984;2024-03-02T18:24:57;1.75;;;0.90;;
85725;SDS011;76169;47.278;10.984;2024-03-02T18:27:24;0.93;;;0.93;;
85725;SDS011;76169;47.278;10.984;2024-03-02T18:29:50;0.90;;;0.90;;
85725;SDS011;76169;47.278;10.984;2024-03-02T18:32:19;1.10;;;1.00;;
85725;SDS011;76169;47.278;10.984;2024-03-02T18:34:45;1.60;;;1.08;;
85725;SDS011;76169;47.278;10.984;2024-03-02T18:37:12;0.90;;;0.90;;
85725;SDS011;76169;47.278;10.984;2024-03-02T18:39:39;0.80;;;0.80;;
85725;SDS011;76169;47.278;10.984;2024-03-02T18:42:06;1.50;;;1.20;;
85725;SDS011;76169;47.278;10.984;2024-03-02T18:44:32;1.52;;;1.00;;
85725;SDS011;76169;47.278;10.984;2024-03-02T18:46:58;1.00;;;0.90;;
85725;SDS011;76169;47.278;10.984;2024-03-02T18:49:25;1.05;;;0.95;;
85725;SDS011;76169;47.278;10.984;2024-03-02T18:51:51;1.20;;;1.10;;
85725;SDS011;76169;47.278;10.984;2024-03-02T18:54:17;1.45;;;0.90;;
85725;SDS011;76169;47.278;10.984;2024-03-02T18:56:43;1.25;;;0.90;;
85725;SDS011;76169;47.278;10.984;2024-03-02T18:59:09;1.83;;;1.17;;
85725;SDS011;76169;47.278;10.984;2024-03-02T19:01:35;1.27;;;1.10;;
85725;SDS011;76169;47.278;10.984;2024-03-02T19:04:01;1.38;;;1.15;;
85725;SDS011;76169;47.278;10.984;2024-03-02T19:06:27;1.42;;;1.10;;
85725;SDS011;76169;47.278;10.984;2024-03-02T19:08:53;1.55;;;1.10;;
85725;SDS011;76169;47.278;10.984;2024-03-02T19:11:19;1.10;;;1.00;;
85725;SDS011;76169;47.278;10.984;2024-03-02T19:13:45;2.25;;;1.15;;
85725;SDS011;76169;47.278;10.984;2024-03-02T19:16:12;2.30;;;1.10;;
85725;SDS011;76169;47.278;10.984;2024-03-02T19:18:38;0.98;;;0.80;;
85725;SDS011;76169;47.278;10.984;2024-03-02T19:21:04;1.70;;;1.10;;
85725;SDS011;76169;47.278;10.984;2024-03-02T19:23:31;1.52;;;1.25;;
85725;SDS011;76169;47.278;10.984;2024-03-02T19:25:57;1.05;;;0.95;;
85725;SDS011;76169;47.278;10.984;2024-03-02T19:28:23;0.98;;;0.80;;
85725;SDS011;76169;47.278;10.984;2024-03-02T19:30:49;1.30;;;0.98;;
85725;SDS011;76169;47.278;10.984;2024-03-02T19:33:16;1.10;;;1.00;;
85725;SDS011;76169;47.278;10.984;2024-03-02T19:35:43;1.80;;;1.10;;
85725;SDS011;76169;47.278;10.984;2024-03-02T19:38:09;1.73;;;1.20;;
85725;SDS011;76169;47.278;10.984;2024-03-02T19:40:35;1.70;;;1.17;;
85725;SDS011;76169;47.278;10.984;2024-03-02T19:43:01;1.25;;;1.00;;
85725;SDS011;76169;47.278;10.984;2024-03-02T19:45:27;1.50;;;1.00;;
85725;SDS011;76169;47.278;10.984;2024-03-02T19:47:53;0.82;;;0.82;;
85725;SDS011;76169;47.278;10.984;2024-03-02T19:50:19;1.10;;;1.00;;
85725;SDS011;76169;47.278;10.984;2024-03-02T19:52:45;2.17;;;1.08;;
85725;SDS011;76169;47.278;10.984;2024-03-02T19:55:12;1.20;;;1.00;;
85725;SDS011;76169;47.278;10.984;2024-03-02T19:57:38;1.40;;;1.00;;
85725;SDS011;76169;47.278;10.984;2024-03-02T20:00:13;0.93;;;0.80;;
85725;SDS011;76169;47.278;10.984;2024-03-02T20:02:40;1.10;;;1.00;;
85725;SDS011;76169;47.278;10.984;2024-03-02T20:05:06;1.17;;;1.08;;
85725;SDS011;76169;47.278;10.984;2024-03-02T20:07:33;1.33;;;1.20;;
85725;SDS011;76169;47.278;10.984;2024-03-02T20:10:05;0.98;;;0.98;;
85725;SDS011;76169;47.278;10.984;2024-03-02T20:12:31;2.22;;;1.10;;
85725;SDS011;76169;47.278;10.984;2024-03-02T20:14:57;1.10;;;1.00;;
85725;SDS011;76169;47.278;10.984;2024-03-02T20:17:24;1.20;;;1.10;;
85725;SDS011;76169;47.278;10.984;2024-03-02T20:19:50;1.88;;;0.90;;
85725;SDS011;76169;47.278;10.984;2024-03-02T20:22:17;1.17;;;1.08;;
85725;SDS011;76169;47.278;10.984;2024-03-02T20:24:43;1.10;;;1.00;;
85725;SDS011;76169;47.278;10.984;2024-03-02T20:27:09;1.23;;;1.10;;
85725;SDS011;76169;47.278;10.984;2024-03-02T20:29:35;1.20;;;1.10;;
85725;SDS011;76169;47.278;10.984;2024-03-02T20:32:01;1.83;;;1.08;;
85725;SDS011;76169;47.278;10.984;2024-03-02T20:34:27;1.95;;;1.15;;
85725;SDS011;76169;47.278;10.984;2024-03-02T20:36:53;1.38;;;1.17;;
85725;SDS011;76169;47.278;10.984;2024-03-02T20:39:21;1.40;;;1.30;;
85725;SDS011;76169;47.278;10.984;2024-03-02T20:41:48;0.95;;;0.95;;
85725;SDS011;76169;47.278;10.984;2024-03-02T20:44:15;1.23;;;1.13;;
85725;SDS011;76169;47.278;10.984;2024-03-02T20:46:43;1.15;;;1.10;;
85725;SDS011;76169;47.278;10.984;2024-03-02T20:49:10;0.90;;;0.90;;
85725;SDS011;76169;47.278;10.984;2024-03-02T20:51:36;1.27;;;1.17;;
85725;SDS011;76169;47.278;10.984;2024-03-02T20:54:02;1.10;;;1.00;;
85725;SDS011;76169;47.278;10.984;2024-03-02T20:56:30;1.27;;;1.10;;
85725;SDS011;76169;47.278;10.984;2024-03-02T20:59:00;1.58;;;1.05;;
85725;SDS011;76169;47.278;10.984;2024-03-02T21:01:26;1.08;;;0.95;;
85725;SDS011;76169;47.278;10.984;2024-03-02T21:03:52;2.60;;;1.10;;
85725;SDS011;76169;47.278;10.984;2024-03-02T21:06:18;1.00;;;0.90;;
85725;SDS011;76169;47.278;10.984;2024-03-02T21:08:44;1.77;;;1.10;;
85725;SDS011;76169;47.278;10.984;2024-03-02T21:11:10;1.30;;;1.10;;
85725;SDS011;76169;47.278;10.984;2024-03-02T21:13:39;2.15;;;1.02;;
85725;SDS011;76169;47.278;10.984;2024-03-02T21:16:05;1.10;;;1.00;;
85725;SDS011;76169;47.278;10.984;2024-03-02T21:18:32;1.45;;;1.08;;
85725;SDS011;76169;47.278;10.984;2024-03-02T21:21:00;1.55;;;1.00;;
85725;SDS011;76169;47.278;10.984;2024-03-02T21:23:26;1.05;;;0.95;;
85725;SDS011;76169;47.278;10.984;2024-03-02T21:25:54;1.30;;;0.98;;
85725;SDS011;76169;47.278;10.984;2024-03-02T21:28:20;2.25;;;1.23;;
85725;SDS011;76169;47.278;10.984;2024-03-02T21:30:46;1.20;;;1.10;;
85725;SDS011;76169;47.278;10.984;2024-03-02T21:33:13;1.50;;;0.98;;
85725;SDS011;76169;47.278;10.984;2024-03-02T21:35:39;1.10;;;1.00;;
85725;SDS011;76169;47.278;10.984;2024-03-02T21:38:05;0.98;;;0.93;;
85725;SDS011;76169;47.278;10.984;2024-03-02T21:40:32;1.10;;;1.00;;
85725;SDS011;76169;47.278;10.984;2024-03-02T21:42:59;1.20;;;1.05;;
85725;SDS011;76169;47.278;10.984;2024-03-02T21:45:25;1.23;;;1.13;;
85725;SDS011;76169;47.278;10.984;2024-03-02T21:47:51;3.85;;;1.20;;
85725;SDS011;76169;47.278;10.984;2024-03-02T21:50:17;1.08;;;0.98;;
85725;SDS011;76169;47.278;10.984;2024-03-02T21:52:43;1.17;;;1.08;;
85725;SDS011;76169;47.278;10.984;2024-03-02T21:55:11;1.30;;;0.98;;
85725;SDS011;76169;47.278;10.984;2024-03-02T21:57:37;1.40;;;1.10;;
85725;SDS011;76169;47.278;10.984;2024-03-02T22:00:03;1.48;;;0.98;;
85725;SDS011;76169;47.278;10.984;2024-03-02T22:02:29;1.10;;;1.00;;
85725;SDS011;76169;47.278;10.984;2024-03-02T22:04:56;1.70;;;1.02;;
85725;SDS011;76169;47.278;10.984;2024-03-02T22:07:23;1.58;;;1.30;;
85725;SDS011;76169;47.278;10.984;2024-03-02T22:09:49;1.05;;;1.00;;
85725;SDS011;76169;47.278;10.984;2024-03-02T22:12:15;1.35;;;1.13;;
85725;SDS011;76169;47.278;10.984;2024-03-02T22:14:41;1.83;;;1.25;;
85725;SDS011;76169;47.278;10.984;2024-03-02T22:17:07;1.60;;;1.10;;
85725;SDS011;76169;47.278;10.984;2024-03-02T22:19:33;0.80;;;0.80;;
85725;SDS011;76169;47.278;10.984;2024-03-02T22:22:00;1.40;;;1.10;;
85725;SDS011;76169;47.278;10.984;2024-03-02T22:24:26;1.10;;;1.00;;
85725;SDS011;76169;47.278;10.984;2024-03-02T22:26:52;1.35;;;1.10;;
85725;SDS011;76169;47.278;10.984;2024-03-02T22:29:18;1.10;;;1.00;;
85725;SDS011;76169;47.278;10.984;2024-03-02T22:31:44;1.90;;;1.08;;
85725;SDS011;76169;47.278;10.984;2024-03-02T22:34:10;1.67;;;1.20;;
85725;SDS011;76169;47.278;10.984;2024-03-02T22:36:36;0.90;;;0.90;;
85725;SDS011;76169;47.278;10.984;2024-03-02T22:39:02;2.50;;;1.17;;
85725;SDS011;76169;47.278;10.984;2024-03-02T22:41:28;1.20;;;1.10;;
85725;SDS011;76169;47.278;10.984;2024-03-02T22:43:54;1.30;;;1.02;;
85725;SDS011;76169;47.278;10.984;2024-03-02T22:46:23;1.40;;;1.08;;
85725;SDS011;76169;47.278;10.984;2024-03-02T22:48:49;1.52;;;1.30;;
85725;SDS011;76169;47.278;10.984;2024-03-02T22:53:47;1.25;;;1.15;;
85725;SDS011;76169;47.278;10.984;2024-03-02T22:56:13;2.05;;;1.40;;
85725;SDS011;76169;47.278;10.984;2024-03-02T22:58:39;2.10;;;1.20;;
85725;SDS011;76169;47.278;10.984;2024-03-02T23:01:05;2.47;;;1.20;;
85725;SDS011;76169;47.278;10.984;2024-03-02T23:03:35;1.48;;;1.38;;
85725;SDS011;76169;47.278;10.984;2024-03-02T23:06:02;1.30;;;1.20;;
85725;SDS011;76169;47.278;10.984;2024-03-02T23:08:28;2.28;;;1.48;;
85725;SDS011;76169;47.278;10.984;2024-03-02T23:10:54;1.13;;;1.00;;
85725;SDS011;76169;47.278;10.984;2024-03-02T23:13:21;3.15;;;1.58;;
85725;SDS011;76169;47.278;10.984;2024-03-02T23:15:48;1.27;;;1.10;;
85725;SDS011;76169;47.278;10.984;2024-03-02T23:18:14;1.83;;;1.30;;
85725;SDS011;76169;47.278;10.984;2024-03-02T23:20:40;1.50;;;1.40;;
85725;SDS011;76169;47.278;10.984;2024-03-02T23:23:06;1.70;;;1.15;;
85725;SDS011;76169;47.278;10.984;2024-03-02T23:25:33;1.25;;;1.15;;
85725;SDS011;76169;47.278;10.984;2024-03-02T23:27:59;1.30;;;1.20;;
85725;SDS011;76169;47.278;10.984;2024-03-02T23:30:25;1.30;;;1.20;;
85725;SDS011;76169;47.278;10.984;2024-03-02T23:32:51;2.10;;;1.35;;
85725;SDS011;76169;47.278;10.984;2024-03-02T23:35:17;1.80;;;1.27;;
85725;SDS011;76169;47.278;10.984;2024-03-02T23:37:44;1.50;;;1.40;;
85725;SDS011;76169;47.278;10.984;2024-03-02T23:40:10;2.83;;;1.23;;
85725;SDS011;76169;47.278;10.984;2024-03-02T23:42:42;1.30;;;1.20;;
85725;SDS011;76169;47.278;10.984;2024-03-02T23:45:08;1.45;;;1.10;;
85725;SDS011;76169;47.278;10.984;2024-03-02T23:47:35;1.20;;;1.10;;
85725;SDS011;76169;47.278;10.984;2024-03-02T23:50:01;1.42;;;1.23;;
85725;SDS011;76169;47.278;10.984;2024-03-02T23:52:28;1.40;;;1.30;;
85725;SDS011;76169;47.278;10.984;2024-03-02T23:54:54;1.20;;;1.10;;
85725;SDS011;76169;47.278;10.984;2024-03-02T23:57:20;1.20;;;1.10;;
85725;SDS011;76169;47.278;10.984;2024-03-02T23:59:46;1.30;;;1.20;;
